createdAt,value
2023-03-27T00:00:16.264Z,7.30
2023-03-27T00:02:46.784Z,7.30
2023-03-27T00:05:16.292Z,7.30
2023-03-27T00:07:44.587Z,7.30
2023-03-27T00:10:13.314Z,7.30
2023-03-27T00:12:41.794Z,7.30
2023-03-27T00:15:15.887Z,7.30
2023-03-27T00:17:46.765Z,7.30
2023-03-27T00:20:16.389Z,7.30
2023-03-27T00:22:44.722Z,7.30
2023-03-27T00:25:13.044Z,7.30
2023-03-27T00:27:41.853Z,7.30
2023-03-27T00:30:13.744Z,7.30
2023-03-27T00:32:41.993Z,7.30
2023-03-27T00:35:12.144Z,7.30
2023-03-27T00:37:40.863Z,7.30
2023-03-27T00:40:17.872Z,7.30
2023-03-27T00:42:48.221Z,7.30
2023-03-27T00:45:21.718Z,7.30
2023-03-27T00:47:55.080Z,7.20
2023-03-27T00:50:27.576Z,7.20
2023-03-27T00:53:00.456Z,7.30
2023-03-27T00:55:32.037Z,7.20
2023-03-27T00:58:06.458Z,7.20
2023-03-27T01:00:37.016Z,7.20
2023-03-27T01:03:08.598Z,7.20
2023-03-27T01:05:38.422Z,7.20
2023-03-27T01:08:07.653Z,7.10
2023-03-27T01:10:50.112Z,7.00
2023-03-27T01:13:42.280Z,7.00
2023-03-27T01:16:19.122Z,6.90
2023-03-27T01:19:10.316Z,6.80
2023-03-27T01:22:25.376Z,6.70
2023-03-27T01:25:29.203Z,6.60
2023-03-27T01:28:30.077Z,6.60
2023-03-27T01:31:11.447Z,6.50
2023-03-27T01:34:05.489Z,6.50
2023-03-27T01:37:07.636Z,6.50
2023-03-27T01:39:49.508Z,6.40
2023-03-27T01:42:24.454Z,6.40
2023-03-27T01:45:02.578Z,6.40
2023-03-27T01:47:47.260Z,6.30
2023-03-27T01:50:22.214Z,6.20
2023-03-27T01:52:56.715Z,6.20
2023-03-27T01:55:31.573Z,6.10
2023-03-27T01:58:06.915Z,6.10
2023-03-27T02:00:52.194Z,6.00
2023-03-27T02:03:33.675Z,6.00
2023-03-27T02:06:07.759Z,6.00
2023-03-27T02:08:43.765Z,5.90
2023-03-27T02:11:20.266Z,5.80
2023-03-27T02:13:54.349Z,5.80
2023-03-27T02:16:33.576Z,5.80
2023-03-27T02:19:08.588Z,5.70
2023-03-27T02:21:37.443Z,5.60
2023-03-27T02:24:08.898Z,5.60
2023-03-27T02:26:38.993Z,5.60
2023-03-27T02:29:35.267Z,5.60
2023-03-27T02:32:21.332Z,5.50
2023-03-27T02:35:12.547Z,5.50
2023-03-27T02:37:54.662Z,5.50
2023-03-27T02:40:47.710Z,5.50
2023-03-27T02:43:44.403Z,5.50
2023-03-27T02:46:25.623Z,5.40
2023-03-27T02:48:57.978Z,5.40
2023-03-27T02:51:29.884Z,5.40
2023-03-27T02:54:02.408Z,5.40
2023-03-27T02:56:38.584Z,5.40
2023-03-27T02:59:13.033Z,5.40
2023-03-27T03:01:45.400Z,5.40
2023-03-27T03:04:26.418Z,5.30
2023-03-27T03:07:07.956Z,5.30
2023-03-27T03:09:41.199Z,5.30
2023-03-27T03:12:10.794Z,5.20
2023-03-27T03:14:45.201Z,5.20
2023-03-27T03:17:14.167Z,5.20
2023-03-27T03:19:42.483Z,5.30
2023-03-27T03:22:11.284Z,5.30
2023-03-27T03:24:42.338Z,5.20
2023-03-27T03:27:14.270Z,5.10
2023-03-27T03:30:00.284Z,5.10
2023-03-27T03:32:30.235Z,5.00
2023-03-27T03:35:01.605Z,4.90
2023-03-27T03:37:38.560Z,4.80
2023-03-27T03:40:11.892Z,4.70
2023-03-27T03:42:46.806Z,4.60
2023-03-27T03:45:17.059Z,4.60
2023-03-27T03:47:47.289Z,4.60
2023-03-27T03:50:15.880Z,4.60
2023-03-27T03:52:44.319Z,4.50
2023-03-27T03:55:13.620Z,4.40
2023-03-27T03:57:41.924Z,4.30
2023-03-27T04:00:19.034Z,4.30
2023-03-27T04:02:54.370Z,4.30
2023-03-27T04:05:24.404Z,4.30
2023-03-27T04:07:54.691Z,4.30
2023-03-27T04:10:29.390Z,4.20
2023-03-27T04:12:59.632Z,4.20
2023-03-27T04:15:39.860Z,4.20
2023-03-27T04:18:16.579Z,4.20
2023-03-27T04:20:49.909Z,4.20
2023-03-27T04:23:20.609Z,4.20
2023-03-27T04:25:49.569Z,4.20
2023-03-27T04:28:25.775Z,4.20
2023-03-27T04:31:11.039Z,4.20
2023-03-27T04:34:05.439Z,4.20
2023-03-27T04:37:02.670Z,4.10
2023-03-27T04:39:34.496Z,4.10
2023-03-27T04:42:04.523Z,4.10
2023-03-27T04:44:35.067Z,4.00
2023-03-27T04:47:08.692Z,3.80
2023-03-27T04:49:40.707Z,3.70
2023-03-27T04:52:19.898Z,3.70
2023-03-27T04:54:49.308Z,3.50
2023-03-27T04:57:19.183Z,3.50
2023-03-27T04:59:50.276Z,3.40
2023-03-27T05:02:38.684Z,3.40
2023-03-27T05:05:19.902Z,3.40
2023-03-27T05:07:49.481Z,3.50
2023-03-27T05:10:22.179Z,3.50
2023-03-27T05:12:54.511Z,3.50
2023-03-27T05:15:25.125Z,3.50
2023-03-27T05:17:56.913Z,3.50
2023-03-27T05:20:27.857Z,3.50
2023-03-27T05:22:57.760Z,3.50
2023-03-27T05:25:31.020Z,3.60
2023-03-27T05:28:01.168Z,3.60
2023-03-27T05:30:34.937Z,3.60
2023-03-27T05:33:33.857Z,3.60
2023-03-27T05:36:06.045Z,3.70
2023-03-27T05:38:37.036Z,3.70
2023-03-27T05:41:16.503Z,3.70
2023-03-27T05:43:51.236Z,3.70
2023-03-27T05:46:22.584Z,3.70
2023-03-27T05:49:02.452Z,3.70
2023-03-27T05:51:31.608Z,3.70
2023-03-27T05:54:00.266Z,3.70
2023-03-27T05:56:49.517Z,3.70
2023-03-27T05:59:19.290Z,3.70
2023-03-27T06:01:50.552Z,3.70
2023-03-27T06:04:28.669Z,3.70
2023-03-27T06:07:06.063Z,3.70
2023-03-27T06:09:35.316Z,3.70
2023-03-27T06:12:22.725Z,3.70
2023-03-27T06:14:54.815Z,3.70
2023-03-27T06:17:34.437Z,3.70
2023-03-27T06:20:11.897Z,3.70
2023-03-27T06:22:45.781Z,3.70
2023-03-27T06:25:15.897Z,3.80
2023-03-27T06:27:44.452Z,3.70
2023-03-27T06:30:14.251Z,3.70
2023-03-27T06:32:49.168Z,3.80
2023-03-27T06:35:20.138Z,3.80
2023-03-27T06:37:56.499Z,3.80
2023-03-27T06:40:28.329Z,3.90
2023-03-27T06:43:08.478Z,3.90
2023-03-27T06:45:45.440Z,3.90
2023-03-27T06:48:32.252Z,4.00
2023-03-27T06:51:05.717Z,4.00
2023-03-27T06:53:37.431Z,4.00
2023-03-27T06:56:09.532Z,4.00
2023-03-27T06:59:00.941Z,4.00
2023-03-27T07:01:29.774Z,4.00
2023-03-27T07:04:22.804Z,4.10
2023-03-27T07:06:58.248Z,4.10
2023-03-27T07:09:32.911Z,4.20
2023-03-27T07:12:05.716Z,4.20
2023-03-27T07:14:36.564Z,4.20
2023-03-27T07:17:06.208Z,4.30
2023-03-27T07:19:50.471Z,4.30
2023-03-27T07:22:22.209Z,4.40
2023-03-27T07:24:50.873Z,4.40
2023-03-27T07:27:20.478Z,4.40
2023-03-27T07:29:48.904Z,4.50
2023-03-27T07:32:34.125Z,4.50
2023-03-27T07:35:06.394Z,4.50
2023-03-27T07:38:14.708Z,4.70
2023-03-27T07:40:46.052Z,5.00
2023-03-27T07:43:46.910Z,5.30
2023-03-27T07:46:16.134Z,5.60
2023-03-27T07:48:44.602Z,5.90
2023-03-27T07:51:18.326Z,6.00
2023-03-27T07:53:49.302Z,6.10
2023-03-27T07:56:23.365Z,6.10
2023-03-27T07:59:06.658Z,6.50
2023-03-27T08:01:35.739Z,6.70
2023-03-27T08:04:05.680Z,6.80
2023-03-27T08:06:36.134Z,7.00
2023-03-27T08:09:08.582Z,7.30
2023-03-27T08:11:37.509Z,7.90
2023-03-27T08:14:09.193Z,8.50
2023-03-27T08:16:39.525Z,8.90
2023-03-27T08:19:08.111Z,9.20
2023-03-27T08:21:40.550Z,9.40
2023-03-27T08:24:11.217Z,10.50
2023-03-27T08:26:58.493Z,11.40
2023-03-27T08:29:27.670Z,12.50
2023-03-27T08:31:55.973Z,13.60
2023-03-27T08:34:24.201Z,14.40
2023-03-27T08:36:54.376Z,15.20
2023-03-27T08:39:25.519Z,15.60
2023-03-27T08:42:00.535Z,16.30
2023-03-27T08:44:37.319Z,16.90
2023-03-27T08:47:16.780Z,17.30
2023-03-27T08:49:55.719Z,17.00
2023-03-27T08:52:29.010Z,17.90
2023-03-27T08:55:06.802Z,18.30
2023-03-27T08:57:39.932Z,18.50
2023-03-27T09:00:23.207Z,19.10
2023-03-27T09:03:04.446Z,19.20
2023-03-27T09:05:43.034Z,20.00
2023-03-27T09:08:26.535Z,20.40
2023-03-27T09:11:02.761Z,20.50
2023-03-27T09:13:45.555Z,20.60
2023-03-27T09:16:21.428Z,20.60
2023-03-27T09:18:58.382Z,20.40
2023-03-27T09:21:38.009Z,20.80
2023-03-27T09:24:21.381Z,21.30
2023-03-27T09:27:19.484Z,21.90
2023-03-27T09:30:22.288Z,22.30
2023-03-27T09:33:04.806Z,22.60
2023-03-27T09:35:38.812Z,22.50
2023-03-27T09:38:29.279Z,22.70
2023-03-27T09:41:02.947Z,22.30
2023-03-27T09:43:42.452Z,22.70
2023-03-27T09:46:18.088Z,22.40
2023-03-27T09:48:57.325Z,21.90
2023-03-27T09:51:42.556Z,22.20
2023-03-27T09:54:55.973Z,22.00
2023-03-27T09:57:33.735Z,21.20
2023-03-27T10:00:14.602Z,21.20
2023-03-27T10:03:03.771Z,20.40
2023-03-27T10:05:33.692Z,20.70
2023-03-27T10:08:27.303Z,21.20
2023-03-27T10:11:20.472Z,21.70
2023-03-27T10:13:56.583Z,22.30
2023-03-27T10:16:31.020Z,21.90
2023-03-27T10:19:03.870Z,22.50
2023-03-27T10:21:43.232Z,22.70
2023-03-27T10:24:23.960Z,21.90
2023-03-27T10:27:22.042Z,22.40
2023-03-27T10:30:28.369Z,22.60
2023-03-27T10:33:07.473Z,21.70
2023-03-27T10:35:57.157Z,21.00
2023-03-27T10:38:33.735Z,20.60
2023-03-27T10:41:06.356Z,21.30
2023-03-27T10:43:44.886Z,20.00
2023-03-27T10:46:16.856Z,18.30
2023-03-27T10:48:59.485Z,17.20
2023-03-27T10:51:48.833Z,17.30
2023-03-27T10:54:35.421Z,18.70
2023-03-27T10:57:08.687Z,19.40
2023-03-27T10:59:42.959Z,18.80
2023-03-27T11:02:28.536Z,17.30
2023-03-27T11:05:04.247Z,16.90
2023-03-27T11:07:38.640Z,16.00
2023-03-27T11:10:18.368Z,15.90
2023-03-27T11:12:54.454Z,15.60
2023-03-27T11:15:28.147Z,15.00
2023-03-27T11:18:02.744Z,14.10
2023-03-27T11:21:02.713Z,13.50
2023-03-27T11:23:45.569Z,14.90
2023-03-27T11:26:39.509Z,16.30
2023-03-27T11:29:15.272Z,15.50
2023-03-27T11:31:52.252Z,14.90
2023-03-27T11:34:38.698Z,16.00
2023-03-27T11:37:41.931Z,17.70
2023-03-27T11:40:20.190Z,18.10
2023-03-27T11:42:52.108Z,17.20
2023-03-27T11:45:25.721Z,16.20
2023-03-27T11:48:13.239Z,15.50
2023-03-27T11:50:54.618Z,14.50
2023-03-27T11:53:52.669Z,13.50
2023-03-27T11:56:52.505Z,12.70
2023-03-27T12:00:17.682Z,12.50
2023-03-27T12:03:29.076Z,14.40
2023-03-27T12:06:09.209Z,15.50
2023-03-27T12:09:02.860Z,14.50
2023-03-27T12:11:45.775Z,14.00
2023-03-27T12:14:41.342Z,13.40
2023-03-27T12:17:36.337Z,12.70
2023-03-27T12:20:52.009Z,12.60
2023-03-27T12:23:39.832Z,12.70
2023-03-27T12:26:56.396Z,12.50
2023-03-27T12:30:05.158Z,12.40
2023-03-27T12:33:04.803Z,11.90
2023-03-27T12:35:38.548Z,12.10
2023-03-27T12:38:13.883Z,12.30
2023-03-27T12:40:50.932Z,13.50
2023-03-27T12:43:30.478Z,14.80
2023-03-27T12:46:34.343Z,15.20
2023-03-27T12:49:20.252Z,16.40
2023-03-27T12:52:15.129Z,16.60
2023-03-27T12:55:33.332Z,16.70
2023-03-27T12:58:35.069Z,16.10
2023-03-27T13:02:00.308Z,15.00
2023-03-27T13:05:27.472Z,14.20
2023-03-27T13:08:26.770Z,13.40
2023-03-27T13:11:22.396Z,12.40
2023-03-27T13:14:32.376Z,11.60
2023-03-27T13:17:45.739Z,11.00
2023-03-27T13:20:28.624Z,10.50
2023-03-27T13:23:20.999Z,10.00
2023-03-27T13:26:19.223Z,9.60
2023-03-27T13:28:50.994Z,9.30
2023-03-27T13:31:59.168Z,9.00
2023-03-27T13:34:37.152Z,9.00
2023-03-27T13:37:57.985Z,8.90
2023-03-27T13:40:37.469Z,9.50
2023-03-27T13:43:24.660Z,10.60
2023-03-27T13:46:02.279Z,12.10
2023-03-27T13:49:11.321Z,13.20
2023-03-27T13:52:23.934Z,14.20
2023-03-27T13:55:46.468Z,14.60
2023-03-27T13:59:14.196Z,15.20
2023-03-27T14:01:57.887Z,15.50
2023-03-27T14:05:10.132Z,15.60
2023-03-27T14:08:15.900Z,15.80
2023-03-27T14:11:37.708Z,15.50
2023-03-27T14:14:37.195Z,14.90
2023-03-27T14:17:31.728Z,13.80
2023-03-27T14:20:20.409Z,13.20
2023-03-27T14:22:56.783Z,12.80
2023-03-27T14:25:35.126Z,13.00
2023-03-27T14:28:34.480Z,12.60
2023-03-27T14:31:08.479Z,12.20
2023-03-27T14:34:03.196Z,11.90
2023-03-27T14:36:45.987Z,11.60
2023-03-27T14:39:23.890Z,11.40
2023-03-27T14:42:00.501Z,11.50
2023-03-27T14:44:33.309Z,11.40
2023-03-27T14:47:13.227Z,11.60
2023-03-27T14:49:47.542Z,12.20
2023-03-27T14:52:26.701Z,12.70
2023-03-27T14:55:22.815Z,12.80
2023-03-27T14:58:11.214Z,12.20
2023-03-27T15:00:42.865Z,11.60
2023-03-27T15:03:18.906Z,11.20
2023-03-27T15:06:01.973Z,10.70
2023-03-27T15:08:39.049Z,10.60
2023-03-27T15:11:25.212Z,10.60
2023-03-27T15:14:01.343Z,10.50
2023-03-27T15:16:36.703Z,10.30
2023-03-27T15:19:12.482Z,10.60
2023-03-27T15:21:59.082Z,11.10
2023-03-27T15:24:38.654Z,11.70
2023-03-27T15:27:17.076Z,12.30
2023-03-27T15:29:50.877Z,12.50
2023-03-27T15:32:22.244Z,12.70
2023-03-27T15:34:56.821Z,12.90
2023-03-27T15:37:28.451Z,13.20
2023-03-27T15:43:36.430Z,13.40
2023-03-27T15:46:17.245Z,13.50
2023-03-27T15:48:48.318Z,13.30
2023-03-27T15:51:31.161Z,12.60
2023-03-27T15:53:59.521Z,11.90
2023-03-27T15:56:38.057Z,11.40
2023-03-27T15:59:09.048Z,11.00
2023-03-27T16:01:39.896Z,10.50
2023-03-27T16:04:12.288Z,10.10
2023-03-27T16:06:45.008Z,9.60
2023-03-27T16:09:25.626Z,9.30
2023-03-27T16:11:57.568Z,9.00
2023-03-27T16:14:33.164Z,8.70
2023-03-27T16:17:19.560Z,8.70
2023-03-27T16:19:55.631Z,8.70
2023-03-27T16:22:26.576Z,8.90
2023-03-27T16:24:55.644Z,8.60
2023-03-27T16:27:28.869Z,8.50
2023-03-27T16:29:57.017Z,8.70
2023-03-27T16:32:25.415Z,8.80
2023-03-27T16:34:53.727Z,8.70
2023-03-27T16:37:25.139Z,8.30
2023-03-27T16:39:54.160Z,8.00
2023-03-27T16:42:26.346Z,7.80
2023-03-27T16:44:55.291Z,7.50
2023-03-27T16:47:24.707Z,7.30
2023-03-27T16:50:10.302Z,7.00
2023-03-27T16:52:39.413Z,6.80
2023-03-27T16:55:09.197Z,6.60
2023-03-27T16:57:38.730Z,6.40
2023-03-27T17:00:09.730Z,6.20
2023-03-27T17:02:37.986Z,6.20
2023-03-27T17:05:08.840Z,6.20
2023-03-27T17:07:37.329Z,6.20
2023-03-27T17:10:06.943Z,6.20
2023-03-27T17:12:35.372Z,6.20
2023-03-27T17:15:05.707Z,6.00
2023-03-27T17:17:34.089Z,5.90
2023-03-27T17:20:03.315Z,5.90
2023-03-27T17:22:32.811Z,5.70
2023-03-27T17:25:02.427Z,5.60
2023-03-27T17:27:30.759Z,5.50
2023-03-27T17:29:59.318Z,5.40
2023-03-27T17:32:29.239Z,5.40
2023-03-27T17:34:57.791Z,5.20
2023-03-27T17:37:27.282Z,5.20
2023-03-27T17:39:55.631Z,5.10
2023-03-27T17:42:24.225Z,4.90
2023-03-27T17:44:52.434Z,4.90
2023-03-27T17:47:20.840Z,4.80
2023-03-27T17:49:52.864Z,4.70
2023-03-27T17:52:23.346Z,4.60
2023-03-27T17:54:51.589Z,4.50
2023-03-27T17:57:20.053Z,4.50
2023-03-27T17:59:48.439Z,4.50
2023-03-27T18:02:18.675Z,4.50
2023-03-27T18:04:52.057Z,4.50
2023-03-27T18:07:22.065Z,4.60
2023-03-27T18:09:51.706Z,4.60
2023-03-27T18:12:20.300Z,4.70
2023-03-27T18:14:48.808Z,4.60
2023-03-27T18:17:20.932Z,4.60
2023-03-27T18:19:49.489Z,4.60
2023-03-27T18:22:17.671Z,4.50
2023-03-27T18:24:47.317Z,4.50
2023-03-27T18:27:16.464Z,4.40
2023-03-27T18:29:45.548Z,4.40
2023-03-27T18:32:13.858Z,4.40
2023-03-27T18:34:42.298Z,4.40
2023-03-27T18:37:10.708Z,4.40
2023-03-27T18:39:39.027Z,4.40
2023-03-27T18:42:08.802Z,4.40
2023-03-27T18:44:39.119Z,4.40
2023-03-27T18:47:09.067Z,4.40
2023-03-27T18:49:38.935Z,4.40
2023-03-27T18:52:07.436Z,4.50
2023-03-27T18:54:37.081Z,4.50
2023-03-27T18:57:05.683Z,4.50
2023-03-27T18:59:35.309Z,4.60
2023-03-27T19:02:03.570Z,4.60
2023-03-27T19:04:31.946Z,4.60
2023-03-27T19:07:01.207Z,4.60
2023-03-27T19:09:41.018Z,4.70
2023-03-27T19:12:10.164Z,4.70
2023-03-27T19:15:02.175Z,4.80
2023-03-27T19:18:04.907Z,4.80
2023-03-27T19:20:53.159Z,4.80
2023-03-27T19:23:43.893Z,4.80
2023-03-27T19:26:17.425Z,4.70
2023-03-27T19:28:47.742Z,4.70
2023-03-27T19:31:17.832Z,4.70
2023-03-27T19:33:46.450Z,4.60
2023-03-27T19:36:15.572Z,4.60
2023-03-27T19:38:43.758Z,4.50
2023-03-27T19:41:12.871Z,4.50
2023-03-27T19:43:41.116Z,4.40
2023-03-27T19:46:16.153Z,4.30
2023-03-27T19:48:47.379Z,4.30
2023-03-27T19:51:26.512Z,4.20
2023-03-27T19:53:55.527Z,4.20
2023-03-27T19:56:26.435Z,4.20
2023-03-27T19:58:54.625Z,4.20
2023-03-27T20:01:22.974Z,4.10
2023-03-27T20:03:52.818Z,4.10
2023-03-27T20:06:21.934Z,4.10
2023-03-27T20:08:50.147Z,4.00
2023-03-27T20:11:19.082Z,4.00
2023-03-27T20:13:56.274Z,3.90
2023-03-27T20:16:27.555Z,3.90
2023-03-27T20:19:03.465Z,3.90
2023-03-27T20:21:34.573Z,3.80
2023-03-27T20:24:09.746Z,3.80
2023-03-27T20:26:42.117Z,3.80
2023-03-27T20:29:18.250Z,3.70
2023-03-27T20:31:47.948Z,3.70
2023-03-27T20:34:19.729Z,3.70
2023-03-27T20:36:53.149Z,3.70
2023-03-27T20:39:34.630Z,3.60
2023-03-27T20:42:02.950Z,3.60
2023-03-27T20:44:35.950Z,3.60
2023-03-27T20:47:10.915Z,3.60
2023-03-27T20:49:42.926Z,3.50
2023-03-27T20:52:14.391Z,3.50
2023-03-27T20:54:43.044Z,3.60
2023-03-27T20:57:13.189Z,3.60
2023-03-27T20:59:41.325Z,3.60
2023-03-27T21:02:15.778Z,3.60
2023-03-27T21:04:46.501Z,3.50
2023-03-27T21:07:15.727Z,3.50
2023-03-27T21:09:46.316Z,3.60
2023-03-27T21:12:14.736Z,3.60
2023-03-27T21:14:42.975Z,3.60
2023-03-27T21:17:13.299Z,3.60
2023-03-27T21:19:41.501Z,3.60
2023-03-27T21:22:11.073Z,3.60
2023-03-27T21:24:41.083Z,3.70
2023-03-27T21:27:09.303Z,3.60
2023-03-27T21:29:37.780Z,3.60
2023-03-27T21:32:07.806Z,3.50
2023-03-27T21:34:36.274Z,3.50
2023-03-27T21:37:04.476Z,3.40
2023-03-27T21:39:34.036Z,3.30
2023-03-27T21:42:02.216Z,3.30
2023-03-27T21:44:30.465Z,3.20
2023-03-27T21:46:58.661Z,3.20
2023-03-27T21:49:27.128Z,3.10
2023-03-27T21:51:55.347Z,3.10
2023-03-27T21:54:23.667Z,3.10
2023-03-27T21:56:53.268Z,3.00
2023-03-27T21:59:21.528Z,3.00
2023-03-27T22:01:49.866Z,2.90
2023-03-27T22:04:19.907Z,2.80
2023-03-27T22:06:49.444Z,2.80
2023-03-27T22:09:17.939Z,2.70
2023-03-27T22:11:46.183Z,2.70
2023-03-27T22:14:15.828Z,2.60
2023-03-27T22:16:44.525Z,2.60
2023-03-27T22:19:12.987Z,2.60
2023-03-27T22:21:41.214Z,2.50
2023-03-27T22:24:10.100Z,2.50
2023-03-27T22:26:41.376Z,2.50
2023-03-27T22:29:10.348Z,2.40
2023-03-27T22:31:40.085Z,2.40
2023-03-27T22:34:08.311Z,2.40
2023-03-27T22:36:36.477Z,2.30
2023-03-27T22:39:05.642Z,2.30
2023-03-27T22:41:33.922Z,2.20
2023-03-27T22:44:02.753Z,2.20
2023-03-27T22:46:31.162Z,2.20
2023-03-27T22:49:01.015Z,2.20
2023-03-27T22:51:30.957Z,2.20
2023-03-27T22:53:59.483Z,2.10
2023-03-27T22:56:27.903Z,2.10
2023-03-27T22:58:56.096Z,2.00
2023-03-27T23:01:24.317Z,2.00
2023-03-27T23:03:52.897Z,2.00
2023-03-27T23:06:24.687Z,2.00
2023-03-27T23:08:53.220Z,2.00
2023-03-27T23:11:21.756Z,1.90
2023-03-27T23:13:50.402Z,1.90
2023-03-27T23:16:18.614Z,1.90
2023-03-27T23:18:46.837Z,1.90
2023-03-27T23:21:17.557Z,1.80
2023-03-27T23:23:47.383Z,1.80
2023-03-27T23:26:15.827Z,1.80
2023-03-27T23:28:44.150Z,1.80
2023-03-27T23:31:15.510Z,1.80
2023-03-27T23:33:46.670Z,1.80
2023-03-27T23:36:17.205Z,1.70
2023-03-27T23:38:47.480Z,1.70
2023-03-27T23:41:17.323Z,1.70
2023-03-27T23:43:45.912Z,1.60
2023-03-27T23:46:14.340Z,1.60
2023-03-27T23:48:44.588Z,1.50
2023-03-27T23:51:15.597Z,1.40
2023-03-27T23:53:44.031Z,1.40
2023-03-27T23:56:13.684Z,1.40
2023-03-27T23:58:41.869Z,1.40
